sensor_id;sensor_type;location;lat;lon;timestamp;P1;durP1;ratioP1;P2;durP2;ratioP2
2129;SDS011;1071;52.544;13.374;2023-07-31T00:01:26;2.30;;;2.10;;
2129;SDS011;1071;52.544;13.374;2023-07-31T00:03:54;5.13;;;2.17;;
2129;SDS011;1071;52.544;13.374;2023-07-31T00:06:22;4.40;;;2.37;;
2129;SDS011;1071;52.544;13.374;2023-07-31T00:08:48;2.47;;;1.70;;
2129;SDS011;1071;52.544;13.374;2023-07-31T00:11:15;2.63;;;2.20;;
2129;SDS011;1071;52.544;13.374;2023-07-31T00:13:43;5.90;;;2.90;;
2129;SDS011;1071;52.544;13.374;2023-07-31T00:16:09;3.10;;;1.80;;
2129;SDS011;1071;52.544;13.374;2023-07-31T00:18:38;4.17;;;2.20;;
2129;SDS011;1071;52.544;13.374;2023-07-31T00:21:05;2.97;;;2.07;;
2129;SDS011;1071;52.544;13.374;2023-07-31T00:23:32;3.17;;;2.23;;
2129;SDS011;1071;52.544;13.374;2023-07-31T00:25:59;2.53;;;2.33;;
2129;SDS011;1071;52.544;13.374;2023-07-31T00:28:34;19.90;;;17.30;;
2129;SDS011;1071;52.544;13.374;2023-07-31T00:31:01;4.40;;;2.70;;
2129;SDS011;1071;52.544;13.374;2023-07-31T00:33:29;2.27;;;2.07;;
2129;SDS011;1071;52.544;13.374;2023-07-31T00:35:59;4.87;;;2.60;;
2129;SDS011;1071;52.544;13.374;2023-07-31T00:38:26;5.87;;;2.53;;
2129;SDS011;1071;52.544;13.374;2023-07-31T00:40:53;3.53;;;1.93;;
2129;SDS011;1071;52.544;13.374;2023-07-31T00:43:19;5.40;;;2.53;;
2129;SDS011;1071;52.544;13.374;2023-07-31T00:45:47;3.37;;;2.20;;
2129;SDS011;1071;52.544;13.374;2023-07-31T00:48:14;2.43;;;2.20;;
2129;SDS011;1071;52.544;13.374;2023-07-31T00:50:40;2.43;;;1.80;;
2129;SDS011;1071;52.544;13.374;2023-07-31T00:53:09;3.00;;;2.00;;
2129;SDS011;1071;52.544;13.374;2023-07-31T00:55:36;9.10;;;2.80;;
2129;SDS011;1071;52.544;13.374;2023-07-31T00:58:03;5.60;;;3.40;;
2129;SDS011;1071;52.544;13.374;2023-07-31T01:00:30;2.97;;;2.77;;
2129;SDS011;1071;52.544;13.374;2023-07-31T01:03:06;2.83;;;2.53;;
2129;SDS011;1071;52.544;13.374;2023-07-31T01:05:36;2.87;;;2.60;;
2129;SDS011;1071;52.544;13.374;2023-07-31T01:08:15;2.47;;;2.27;;
2129;SDS011;1071;52.544;13.374;2023-07-31T01:10:50;1.60;;;1.50;;
2129;SDS011;1071;52.544;13.374;2023-07-31T01:13:22;4.93;;;2.13;;
2129;SDS011;1071;52.544;13.374;2023-07-31T01:15:51;3.33;;;2.77;;
2129;SDS011;1071;52.544;13.374;2023-07-31T01:18:18;3.07;;;2.73;;
2129;SDS011;1071;52.544;13.374;2023-07-31T01:20:46;2.30;;;2.10;;
2129;SDS011;1071;52.544;13.374;2023-07-31T01:23:26;3.97;;;2.63;;
2129;SDS011;1071;52.544;13.374;2023-07-31T01:26:16;4.10;;;1.97;;
2129;SDS011;1071;52.544;13.374;2023-07-31T01:28:47;3.80;;;1.73;;
2129;SDS011;1071;52.544;13.374;2023-07-31T01:31:24;3.43;;;2.60;;
2129;SDS011;1071;52.544;13.374;2023-07-31T01:33:53;3.33;;;2.53;;
2129;SDS011;1071;52.544;13.374;2023-07-31T01:36:23;4.10;;;2.40;;
2129;SDS011;1071;52.544;13.374;2023-07-31T01:38:53;3.67;;;2.50;;
2129;SDS011;1071;52.544;13.374;2023-07-31T01:41:25;2.57;;;2.37;;
2129;SDS011;1071;52.544;13.374;2023-07-31T01:43:52;2.03;;;1.90;;
2129;SDS011;1071;52.544;13.374;2023-07-31T01:46:19;2.30;;;2.10;;
2129;SDS011;1071;52.544;13.374;2023-07-31T01:48:46;2.57;;;2.20;;
2129;SDS011;1071;52.544;13.374;2023-07-31T01:51:13;2.60;;;2.40;;
2129;SDS011;1071;52.544;13.374;2023-07-31T01:53:40;2.80;;;2.50;;
2129;SDS011;1071;52.544;13.374;2023-07-31T01:56:07;2.60;;;2.30;;
2129;SDS011;1071;52.544;13.374;2023-07-31T01:58:38;2.87;;;2.20;;
2129;SDS011;1071;52.544;13.374;2023-07-31T02:01:07;2.60;;;2.10;;
2129;SDS011;1071;52.544;13.374;2023-07-31T02:03:34;2.60;;;2.40;;
2129;SDS011;1071;52.544;13.374;2023-07-31T02:06:01;2.50;;;2.00;;
2129;SDS011;1071;52.544;13.374;2023-07-31T02:08:28;3.30;;;3.00;;
2129;SDS011;1071;52.544;13.374;2023-07-31T02:10:55;2.40;;;2.20;;
2129;SDS011;1071;52.544;13.374;2023-07-31T02:13:22;4.40;;;2.80;;
2129;SDS011;1071;52.544;13.374;2023-07-31T02:15:50;3.70;;;2.67;;
2129;SDS011;1071;52.544;13.374;2023-07-31T02:18:17;4.57;;;3.00;;
2129;SDS011;1071;52.544;13.374;2023-07-31T02:20:48;3.73;;;2.70;;
2129;SDS011;1071;52.544;13.374;2023-07-31T02:23:16;2.33;;;2.13;;
2129;SDS011;1071;52.544;13.374;2023-07-31T02:25:43;2.37;;;2.17;;
2129;SDS011;1071;52.544;13.374;2023-07-31T02:28:10;4.93;;;3.07;;
2129;SDS011;1071;52.544;13.374;2023-07-31T02:30:37;2.97;;;2.47;;
2129;SDS011;1071;52.544;13.374;2023-07-31T02:33:04;3.20;;;2.43;;
2129;SDS011;1071;52.544;13.374;2023-07-31T02:35:31;2.97;;;2.43;;
2129;SDS011;1071;52.544;13.374;2023-07-31T02:37:58;2.60;;;2.40;;
2129;SDS011;1071;52.544;13.374;2023-07-31T02:40:25;3.67;;;3.37;;
2129;SDS011;1071;52.544;13.374;2023-07-31T02:42:52;3.83;;;2.93;;
2129;SDS011;1071;52.544;13.374;2023-07-31T02:45:19;3.23;;;2.87;;
2129;SDS011;1071;52.544;13.374;2023-07-31T02:47:46;3.10;;;2.60;;
2129;SDS011;1071;52.544;13.374;2023-07-31T02:50:14;3.43;;;2.90;;
2129;SDS011;1071;52.544;13.374;2023-07-31T02:52:41;2.90;;;2.07;;
2129;SDS011;1071;52.544;13.374;2023-07-31T02:55:08;2.70;;;2.50;;
2129;SDS011;1071;52.544;13.374;2023-07-31T02:57:35;3.90;;;2.83;;
2129;SDS011;1071;52.544;13.374;2023-07-31T03:00:02;2.70;;;2.50;;
2129;SDS011;1071;52.544;13.374;2023-07-31T03:02:31;3.83;;;3.17;;
2129;SDS011;1071;52.544;13.374;2023-07-31T03:04:58;3.77;;;2.90;;
2129;SDS011;1071;52.544;13.374;2023-07-31T03:07:26;3.77;;;2.50;;
2129;SDS011;1071;52.544;13.374;2023-07-31T03:09:55;2.87;;;2.57;;
2129;SDS011;1071;52.544;13.374;2023-07-31T03:12:22;6.13;;;2.93;;
2129;SDS011;1071;52.544;13.374;2023-07-31T03:14:52;4.20;;;3.30;;
2129;SDS011;1071;52.544;13.374;2023-07-31T03:17:18;3.77;;;3.13;;
2129;SDS011;1071;52.544;13.374;2023-07-31T03:19:45;3.30;;;3.03;;
2129;SDS011;1071;52.544;13.374;2023-07-31T03:22:12;4.43;;;3.20;;
2129;SDS011;1071;52.544;13.374;2023-07-31T03:24:41;5.13;;;3.80;;
2129;SDS011;1071;52.544;13.374;2023-07-31T03:27:08;4.70;;;3.07;;
2129;SDS011;1071;52.544;13.374;2023-07-31T03:29:34;4.27;;;3.03;;
2129;SDS011;1071;52.544;13.374;2023-07-31T03:32:01;4.13;;;3.57;;
2129;SDS011;1071;52.544;13.374;2023-07-31T03:34:29;5.47;;;3.57;;
2129;SDS011;1071;52.544;13.374;2023-07-31T03:36:57;4.40;;;3.47;;
2129;SDS011;1071;52.544;13.374;2023-07-31T03:39:23;5.60;;;4.97;;
2129;SDS011;1071;52.544;13.374;2023-07-31T03:41:52;3.80;;;3.50;;
2129;SDS011;1071;52.544;13.374;2023-07-31T03:44:19;4.37;;;3.70;;
2129;SDS011;1071;52.544;13.374;2023-07-31T03:46:46;3.70;;;3.10;;
2129;SDS011;1071;52.544;13.374;2023-07-31T03:49:12;6.63;;;3.80;;
2129;SDS011;1071;52.544;13.374;2023-07-31T03:51:39;5.13;;;3.57;;
2129;SDS011;1071;52.544;13.374;2023-07-31T03:54:06;4.53;;;3.63;;
2129;SDS011;1071;52.544;13.374;2023-07-31T03:56:33;7.07;;;3.63;;
2129;SDS011;1071;52.544;13.374;2023-07-31T03:59:02;4.03;;;3.73;;
2129;SDS011;1071;52.544;13.374;2023-07-31T04:01:29;4.67;;;3.87;;
2129;SDS011;1071;52.544;13.374;2023-07-31T04:03:56;7.40;;;3.70;;
2129;SDS011;1071;52.544;13.374;2023-07-31T04:06:36;5.83;;;3.80;;
2129;SDS011;1071;52.544;13.374;2023-07-31T04:09:04;6.40;;;4.40;;
2129;SDS011;1071;52.544;13.374;2023-07-31T04:11:33;4.23;;;3.90;;
2129;SDS011;1071;52.544;13.374;2023-07-31T04:14:02;6.57;;;4.90;;
2129;SDS011;1071;52.544;13.374;2023-07-31T04:16:29;3.73;;;3.40;;
2129;SDS011;1071;52.544;13.374;2023-07-31T04:18:56;7.03;;;4.60;;
2129;SDS011;1071;52.544;13.374;2023-07-31T04:21:23;4.90;;;3.80;;
2129;SDS011;1071;52.544;13.374;2023-07-31T04:23:50;6.70;;;3.80;;
2129;SDS011;1071;52.544;13.374;2023-07-31T04:26:21;4.43;;;3.90;;
2129;SDS011;1071;52.544;13.374;2023-07-31T04:28:48;3.97;;;3.67;;
2129;SDS011;1071;52.544;13.374;2023-07-31T04:31:16;4.27;;;3.40;;
2129;SDS011;1071;52.544;13.374;2023-07-31T04:33:43;5.27;;;3.50;;
2129;SDS011;1071;52.544;13.374;2023-07-31T04:36:10;6.63;;;3.43;;
2129;SDS011;1071;52.544;13.374;2023-07-31T04:38:37;7.57;;;4.50;;
2129;SDS011;1071;52.544;13.374;2023-07-31T04:41:04;4.47;;;4.07;;
2129;SDS011;1071;52.544;13.374;2023-07-31T04:43:31;5.83;;;4.10;;
2129;SDS011;1071;52.544;13.374;2023-07-31T04:46:03;7.07;;;3.83;;
2129;SDS011;1071;52.544;13.374;2023-07-31T04:48:32;4.73;;;3.73;;
2129;SDS011;1071;52.544;13.374;2023-07-31T04:50:59;6.27;;;4.20;;
2129;SDS011;1071;52.544;13.374;2023-07-31T04:53:26;4.40;;;3.87;;
2129;SDS011;1071;52.544;13.374;2023-07-31T04:55:53;3.70;;;3.40;;
2129;SDS011;1071;52.544;13.374;2023-07-31T04:58:20;6.03;;;3.70;;
2129;SDS011;1071;52.544;13.374;2023-07-31T05:00:47;4.73;;;4.03;;
2129;SDS011;1071;52.544;13.374;2023-07-31T05:03:13;7.37;;;4.30;;
2129;SDS011;1071;52.544;13.374;2023-07-31T05:05:42;3.50;;;3.30;;
2129;SDS011;1071;52.544;13.374;2023-07-31T05:08:09;4.53;;;4.13;;
2129;SDS011;1071;52.544;13.374;2023-07-31T05:10:36;4.97;;;3.60;;
2129;SDS011;1071;52.544;13.374;2023-07-31T05:13:03;4.10;;;3.70;;
2129;SDS011;1071;52.544;13.374;2023-07-31T05:15:30;3.50;;;3.20;;
2129;SDS011;1071;52.544;13.374;2023-07-31T05:17:57;4.83;;;3.33;;
2129;SDS011;1071;52.544;13.374;2023-07-31T05:20:24;5.47;;;4.33;;
2129;SDS011;1071;52.544;13.374;2023-07-31T05:22:53;5.80;;;3.40;;
2129;SDS011;1071;52.544;13.374;2023-07-31T05:25:20;3.70;;;3.47;;
2129;SDS011;1071;52.544;13.374;2023-07-31T05:27:47;4.00;;;3.70;;
2129;SDS011;1071;52.544;13.374;2023-07-31T05:30:14;4.03;;;3.63;;
2129;SDS011;1071;52.544;13.374;2023-07-31T05:32:41;6.17;;;4.00;;
2129;SDS011;1071;52.544;13.374;2023-07-31T05:35:08;4.60;;;3.83;;
2129;SDS011;1071;52.544;13.374;2023-07-31T05:37:35;4.60;;;3.80;;
2129;SDS011;1071;52.544;13.374;2023-07-31T05:40:04;5.43;;;4.07;;
2129;SDS011;1071;52.544;13.374;2023-07-31T05:42:32;4.80;;;3.50;;
2129;SDS011;1071;52.544;13.374;2023-07-31T05:45:00;4.23;;;3.83;;
2129;SDS011;1071;52.544;13.374;2023-07-31T05:47:27;10.57;;;4.30;;
2129;SDS011;1071;52.544;13.374;2023-07-31T05:49:57;7.30;;;5.67;;
2129;SDS011;1071;52.544;13.374;2023-07-31T05:52:30;5.50;;;4.80;;
2129;SDS011;1071;52.544;13.374;2023-07-31T05:54:58;6.73;;;6.03;;
2129;SDS011;1071;52.544;13.374;2023-07-31T05:57:26;5.03;;;4.00;;
2129;SDS011;1071;52.544;13.374;2023-07-31T05:59:53;7.10;;;4.23;;
2129;SDS011;1071;52.544;13.374;2023-07-31T06:02:23;6.70;;;3.50;;
2129;SDS011;1071;52.544;13.374;2023-07-31T06:04:50;5.17;;;3.37;;
2129;SDS011;1071;52.544;13.374;2023-07-31T06:07:17;7.00;;;3.70;;
2129;SDS011;1071;52.544;13.374;2023-07-31T06:09:44;3.10;;;2.87;;
2129;SDS011;1071;52.544;13.374;2023-07-31T06:12:11;3.90;;;3.53;;
2129;SDS011;1071;52.544;13.374;2023-07-31T06:14:45;13.93;;;4.27;;
2129;SDS011;1071;52.544;13.374;2023-07-31T06:17:14;3.43;;;3.13;;
2129;SDS011;1071;52.544;13.374;2023-07-31T06:19:43;4.07;;;2.97;;
2129;SDS011;1071;52.544;13.374;2023-07-31T06:22:12;3.50;;;3.20;;
2129;SDS011;1071;52.544;13.374;2023-07-31T06:24:39;3.77;;;2.97;;
2129;SDS011;1071;52.544;13.374;2023-07-31T06:30:24;6.10;;;3.07;;
2129;SDS011;1071;52.544;13.374;2023-07-31T06:32:51;3.40;;;2.80;;
2129;SDS011;1071;52.544;13.374;2023-07-31T06:35:19;4.90;;;3.10;;
2129;SDS011;1071;52.544;13.374;2023-07-31T06:37:47;3.23;;;3.00;;
2129;SDS011;1071;52.544;13.374;2023-07-31T06:40:52;5.10;;;3.63;;
2129;SDS011;1071;52.544;13.374;2023-07-31T06:43:02;4.73;;;3.57;;
2129;SDS011;1071;52.544;13.374;2023-07-31T06:45:34;3.10;;;2.80;;
2129;SDS011;1071;52.544;13.374;2023-07-31T06:48:01;3.20;;;2.50;;
2129;SDS011;1071;52.544;13.374;2023-07-31T06:50:29;3.53;;;2.93;;
2129;SDS011;1071;52.544;13.374;2023-07-31T06:52:58;3.27;;;2.97;;
2129;SDS011;1071;52.544;13.374;2023-07-31T06:55:26;4.03;;;3.27;;
2129;SDS011;1071;52.544;13.374;2023-07-31T06:57:56;5.33;;;3.20;;
2129;SDS011;1071;52.544;13.374;2023-07-31T07:00:29;6.57;;;3.70;;
2129;SDS011;1071;52.544;13.374;2023-07-31T07:03:02;4.80;;;3.33;;
2129;SDS011;1071;52.544;13.374;2023-07-31T07:05:32;5.30;;;3.37;;
2129;SDS011;1071;52.544;13.374;2023-07-31T07:08:13;3.23;;;2.97;;
2129;SDS011;1071;52.544;13.374;2023-07-31T07:10:40;4.10;;;2.57;;
2129;SDS011;1071;52.544;13.374;2023-07-31T07:15:59;2.60;;;2.27;;
2129;SDS011;1071;52.544;13.374;2023-07-31T07:18:29;3.80;;;3.40;;
2129;SDS011;1071;52.544;13.374;2023-07-31T07:20:57;4.20;;;3.13;;
2129;SDS011;1071;52.544;13.374;2023-07-31T07:23:29;4.30;;;3.20;;
2129;SDS011;1071;52.544;13.374;2023-07-31T07:25:56;3.37;;;2.70;;
2129;SDS011;1071;52.544;13.374;2023-07-31T07:28:25;7.03;;;2.60;;
2129;SDS011;1071;52.544;13.374;2023-07-31T07:30:53;3.10;;;2.60;;
2129;SDS011;1071;52.544;13.374;2023-07-31T07:33:20;4.03;;;2.40;;
2129;SDS011;1071;52.544;13.374;2023-07-31T07:35:49;2.63;;;2.17;;
2129;SDS011;1071;52.544;13.374;2023-07-31T07:38:18;3.40;;;3.00;;
2129;SDS011;1071;52.544;13.374;2023-07-31T07:40:46;2.93;;;2.73;;
2129;SDS011;1071;52.544;13.374;2023-07-31T07:43:15;3.57;;;2.87;;
2129;SDS011;1071;52.544;13.374;2023-07-31T07:45:49;3.80;;;2.97;;
2129;SDS011;1071;52.544;13.374;2023-07-31T07:48:16;3.33;;;2.50;;
2129;SDS011;1071;52.544;13.374;2023-07-31T07:50:44;4.50;;;2.93;;
2129;SDS011;1071;52.544;13.374;2023-07-31T07:53:17;3.37;;;2.90;;
2129;SDS011;1071;52.544;13.374;2023-07-31T07:55:44;3.13;;;2.80;;
2129;SDS011;1071;52.544;13.374;2023-07-31T07:58:12;5.80;;;3.10;;
2129;SDS011;1071;52.544;13.374;2023-07-31T08:00:48;6.00;;;3.33;;
2129;SDS011;1071;52.544;13.374;2023-07-31T08:03:16;4.00;;;2.80;;
2129;SDS011;1071;52.544;13.374;2023-07-31T08:05:59;2.60;;;2.40;;
2129;SDS011;1071;52.544;13.374;2023-07-31T08:08:28;3.50;;;2.93;;
2129;SDS011;1071;52.544;13.374;2023-07-31T08:10:57;4.00;;;2.73;;
2129;SDS011;1071;52.544;13.374;2023-07-31T08:13:24;2.57;;;2.37;;
2129;SDS011;1071;52.544;13.374;2023-07-31T08:15:52;4.50;;;2.23;;
2129;SDS011;1071;52.544;13.374;2023-07-31T08:18:22;3.63;;;2.57;;
2129;SDS011;1071;52.544;13.374;2023-07-31T08:20:49;2.50;;;2.40;;
2129;SDS011;1071;52.544;13.374;2023-07-31T08:23:16;2.17;;;1.87;;
2129;SDS011;1071;52.544;13.374;2023-07-31T08:25:44;3.40;;;2.60;;
2129;SDS011;1071;52.544;13.374;2023-07-31T08:28:14;4.50;;;2.60;;
2129;SDS011;1071;52.544;13.374;2023-07-31T08:30:44;4.63;;;2.43;;
2129;SDS011;1071;52.544;13.374;2023-07-31T08:33:11;4.00;;;2.53;;
2129;SDS011;1071;52.544;13.374;2023-07-31T08:35:41;2.47;;;2.27;;
2129;SDS011;1071;52.544;13.374;2023-07-31T08:38:08;3.10;;;2.10;;
2129;SDS011;1071;52.544;13.374;2023-07-31T08:40:36;2.80;;;1.90;;
2129;SDS011;1071;52.544;13.374;2023-07-31T08:43:05;2.57;;;2.37;;
2129;SDS011;1071;52.544;13.374;2023-07-31T08:45:34;3.50;;;2.97;;
2129;SDS011;1071;52.544;13.374;2023-07-31T08:48:01;3.50;;;3.20;;
2129;SDS011;1071;52.544;13.374;2023-07-31T08:50:35;4.27;;;3.07;;
2129;SDS011;1071;52.544;13.374;2023-07-31T08:53:06;3.53;;;3.23;;
2129;SDS011;1071;52.544;13.374;2023-07-31T08:55:47;3.17;;;2.90;;
2129;SDS011;1071;52.544;13.374;2023-07-31T08:58:19;2.57;;;2.27;;
2129;SDS011;1071;52.544;13.374;2023-07-31T09:00:56;5.50;;;2.80;;
2129;SDS011;1071;52.544;13.374;2023-07-31T09:03:45;3.10;;;2.90;;
2129;SDS011;1071;52.544;13.374;2023-07-31T09:06:13;2.00;;;1.90;;
2129;SDS011;1071;52.544;13.374;2023-07-31T09:08:44;6.43;;;3.27;;
2129;SDS011;1071;52.544;13.374;2023-07-31T09:11:14;2.80;;;2.57;;
2129;SDS011;1071;52.544;13.374;2023-07-31T09:13:49;3.20;;;2.70;;
2129;SDS011;1071;52.544;13.374;2023-07-31T09:16:16;2.70;;;2.50;;
2129;SDS011;1071;52.544;13.374;2023-07-31T09:18:52;4.73;;;4.10;;
2129;SDS011;1071;52.544;13.374;2023-07-31T09:21:23;4.20;;;3.60;;
2129;SDS011;1071;52.544;13.374;2023-07-31T09:23:53;3.30;;;2.70;;
2129;SDS011;1071;52.544;13.374;2023-07-31T09:26:30;4.87;;;3.17;;
2129;SDS011;1071;52.544;13.374;2023-07-31T09:29:18;2.50;;;2.30;;
2129;SDS011;1071;52.544;13.374;2023-07-31T09:31:46;3.67;;;2.07;;
2129;SDS011;1071;52.544;13.374;2023-07-31T09:34:15;2.40;;;2.20;;
2129;SDS011;1071;52.544;13.374;2023-07-31T09:36:42;2.83;;;2.10;;
2129;SDS011;1071;52.544;13.374;2023-07-31T09:39:10;2.63;;;2.43;;
2129;SDS011;1071;52.544;13.374;2023-07-31T09:41:38;1.97;;;1.77;;
2129;SDS011;1071;52.544;13.374;2023-07-31T09:44:12;2.10;;;1.90;;
2129;SDS011;1071;52.544;13.374;2023-07-31T09:46:42;1.77;;;1.67;;
2129;SDS011;1071;52.544;13.374;2023-07-31T09:49:09;1.83;;;1.73;;
2129;SDS011;1071;52.544;13.374;2023-07-31T09:51:37;1.60;;;1.50;;
2129;SDS011;1071;52.544;13.374;2023-07-31T09:54:11;3.23;;;1.60;;
2129;SDS011;1071;52.544;13.374;2023-07-31T09:56:42;1.83;;;1.73;;
2129;SDS011;1071;52.544;13.374;2023-07-31T09:59:11;3.20;;;2.10;;
2129;SDS011;1071;52.544;13.374;2023-07-31T10:01:42;3.43;;;2.40;;
2129;SDS011;1071;52.544;13.374;2023-07-31T10:04:11;1.47;;;1.37;;
2129;SDS011;1071;52.544;13.374;2023-07-31T10:06:39;1.87;;;1.77;;
2129;SDS011;1071;52.544;13.374;2023-07-31T10:09:09;3.00;;;1.77;;
2129;SDS011;1071;52.544;13.374;2023-07-31T10:11:42;1.90;;;1.73;;
2129;SDS011;1071;52.544;13.374;2023-07-31T10:14:17;3.30;;;2.10;;
2129;SDS011;1071;52.544;13.374;2023-07-31T10:16:47;2.30;;;2.10;;
2129;SDS011;1071;52.544;13.374;2023-07-31T10:19:17;3.50;;;2.03;;
2129;SDS011;1071;52.544;13.374;2023-07-31T10:21:45;2.40;;;2.20;;
2129;SDS011;1071;52.544;13.374;2023-07-31T10:24:20;3.60;;;3.00;;
2129;SDS011;1071;52.544;13.374;2023-07-31T10:26:52;4.80;;;2.90;;
2129;SDS011;1071;52.544;13.374;2023-07-31T10:29:24;3.23;;;2.93;;
2129;SDS011;1071;52.544;13.374;2023-07-31T10:31:51;4.60;;;3.20;;
2129;SDS011;1071;52.544;13.374;2023-07-31T10:34:20;5.10;;;3.73;;
2129;SDS011;1071;52.544;13.374;2023-07-31T10:39:56;4.27;;;3.50;;
2129;SDS011;1071;52.544;13.374;2023-07-31T10:42:35;4.60;;;4.17;;
2129;SDS011;1071;52.544;13.374;2023-07-31T10:45:09;5.03;;;3.83;;
2129;SDS011;1071;52.544;13.374;2023-07-31T10:47:37;4.63;;;3.50;;
2129;SDS011;1071;52.544;13.374;2023-07-31T10:50:11;6.43;;;3.80;;
2129;SDS011;1071;52.544;13.374;2023-07-31T10:52:51;3.23;;;2.80;;
2129;SDS011;1071;52.544;13.374;2023-07-31T10:55:29;4.80;;;4.13;;
2129;SDS011;1071;52.544;13.374;2023-07-31T10:58:06;5.17;;;4.50;;
2129;SDS011;1071;52.544;13.374;2023-07-31T11:00:38;4.80;;;4.40;;
2129;SDS011;1071;52.544;13.374;2023-07-31T11:03:09;6.00;;;4.00;;
2129;SDS011;1071;52.544;13.374;2023-07-31T11:05:43;4.03;;;3.63;;
2129;SDS011;1071;52.544;13.374;2023-07-31T11:08:19;3.70;;;3.20;;
2129;SDS011;1071;52.544;13.374;2023-07-31T11:11:04;3.47;;;3.17;;
2129;SDS011;1071;52.544;13.374;2023-07-31T11:13:43;5.27;;;4.47;;
2129;SDS011;1071;52.544;13.374;2023-07-31T11:16:17;5.30;;;3.97;;
2129;SDS011;1071;52.544;13.374;2023-07-31T11:18:45;5.23;;;3.97;;
2129;SDS011;1071;52.544;13.374;2023-07-31T11:21:13;4.40;;;3.40;;
2129;SDS011;1071;52.544;13.374;2023-07-31T11:23:41;4.43;;;4.00;;
2129;SDS011;1071;52.544;13.374;2023-07-31T11:26:30;4.50;;;4.03;;
2129;SDS011;1071;52.544;13.374;2023-07-31T11:29:16;5.57;;;4.00;;
2129;SDS011;1071;52.544;13.374;2023-07-31T11:31:48;4.10;;;3.63;;
2129;SDS011;1071;52.544;13.374;2023-07-31T11:34:15;4.30;;;4.00;;
2129;SDS011;1071;52.544;13.374;2023-07-31T11:36:52;7.93;;;4.80;;
2129;SDS011;1071;52.544;13.374;2023-07-31T11:39:23;4.23;;;3.83;;
2129;SDS011;1071;52.544;13.374;2023-07-31T11:41:50;3.43;;;3.13;;
2129;SDS011;1071;52.544;13.374;2023-07-31T11:44:17;5.03;;;4.10;;
2129;SDS011;1071;52.544;13.374;2023-07-31T11:46:53;4.43;;;3.70;;
2129;SDS011;1071;52.544;13.374;2023-07-31T11:49:26;3.70;;;3.40;;
2129;SDS011;1071;52.544;13.374;2023-07-31T11:51:55;3.93;;;3.50;;
2129;SDS011;1071;52.544;13.374;2023-07-31T11:54:24;6.77;;;4.83;;
2129;SDS011;1071;52.544;13.374;2023-07-31T11:56:51;4.33;;;3.93;;
2129;SDS011;1071;52.544;13.374;2023-07-31T11:59:22;3.73;;;3.43;;
2129;SDS011;1071;52.544;13.374;2023-07-31T12:01:53;3.90;;;3.60;;
2129;SDS011;1071;52.544;13.374;2023-07-31T12:04:24;6.20;;;4.20;;
2129;SDS011;1071;52.544;13.374;2023-07-31T12:06:52;4.60;;;4.20;;
2129;SDS011;1071;52.544;13.374;2023-07-31T12:09:21;6.30;;;5.70;;
2129;SDS011;1071;52.544;13.374;2023-07-31T12:11:49;5.37;;;4.77;;
2129;SDS011;1071;52.544;13.374;2023-07-31T12:14:19;5.50;;;4.30;;
2129;SDS011;1071;52.544;13.374;2023-07-31T12:16:47;4.27;;;3.87;;
2129;SDS011;1071;52.544;13.374;2023-07-31T12:19:21;4.67;;;4.00;;
2129;SDS011;1071;52.544;13.374;2023-07-31T12:21:48;3.83;;;3.43;;
2129;SDS011;1071;52.544;13.374;2023-07-31T12:24:17;5.87;;;4.10;;
2129;SDS011;1071;52.544;13.374;2023-07-31T12:26:45;5.70;;;3.77;;
2129;SDS011;1071;52.544;13.374;2023-07-31T12:29:12;3.90;;;3.60;;
2129;SDS011;1071;52.544;13.374;2023-07-31T12:31:40;4.30;;;2.83;;
2129;SDS011;1071;52.544;13.374;2023-07-31T12:34:17;3.90;;;3.60;;
2129;SDS011;1071;52.544;13.374;2023-07-31T12:36:48;3.40;;;3.10;;
2129;SDS011;1071;52.544;13.374;2023-07-31T12:39:15;7.63;;;5.30;;
2129;SDS011;1071;52.544;13.374;2023-07-31T12:41:42;9.63;;;4.90;;
2129;SDS011;1071;52.544;13.374;2023-07-31T12:44:09;4.33;;;3.43;;
2129;SDS011;1071;52.544;13.374;2023-07-31T12:46:36;4.80;;;3.67;;
2129;SDS011;1071;52.544;13.374;2023-07-31T12:49:03;4.90;;;3.03;;
2129;SDS011;1071;52.544;13.374;2023-07-31T12:51:34;3.57;;;3.20;;
2129;SDS011;1071;52.544;13.374;2023-07-31T12:54:02;3.13;;;2.73;;
2129;SDS011;1071;52.544;13.374;2023-07-31T12:56:31;3.47;;;3.17;;
2129;SDS011;1071;52.544;13.374;2023-07-31T12:58:58;4.20;;;3.80;;
2129;SDS011;1071;52.544;13.374;2023-07-31T13:01:25;3.20;;;2.90;;
2129;SDS011;1071;52.544;13.374;2023-07-31T13:06:27;3.80;;;3.50;;
2129;SDS011;1071;52.544;13.374;2023-07-31T13:08:54;3.50;;;3.20;;
2129;SDS011;1071;52.544;13.374;2023-07-31T13:11:22;3.20;;;2.47;;
2129;SDS011;1071;52.544;13.374;2023-07-31T13:14:25;3.37;;;2.40;;
2129;SDS011;1071;52.544;13.374;2023-07-31T13:16:43;2.40;;;2.20;;
2129;SDS011;1071;52.544;13.374;2023-07-31T13:19:10;3.20;;;2.23;;
2129;SDS011;1071;52.544;13.374;2023-07-31T13:21:37;2.40;;;2.20;;
2129;SDS011;1071;52.544;13.374;2023-07-31T13:24:05;3.23;;;2.50;;
2129;SDS011;1071;52.544;13.374;2023-07-31T13:26:39;3.03;;;2.53;;
2129;SDS011;1071;52.544;13.374;2023-07-31T13:29:07;2.50;;;2.30;;
2129;SDS011;1071;52.544;13.374;2023-07-31T13:31:39;2.83;;;2.60;;
2129;SDS011;1071;52.544;13.374;2023-07-31T13:34:06;2.53;;;2.10;;
2129;SDS011;1071;52.544;13.374;2023-07-31T13:36:33;2.80;;;2.37;;
2129;SDS011;1071;52.544;13.374;2023-07-31T13:39:02;4.20;;;2.70;;
2129;SDS011;1071;52.544;13.374;2023-07-31T13:41:30;4.80;;;2.47;;
2129;SDS011;1071;52.544;13.374;2023-07-31T13:43:58;2.97;;;2.77;;
2129;SDS011;1071;52.544;13.374;2023-07-31T13:46:25;2.80;;;2.50;;
2129;SDS011;1071;52.544;13.374;2023-07-31T13:48:53;4.50;;;4.10;;
2129;SDS011;1071;52.544;13.374;2023-07-31T13:51:24;4.50;;;3.70;;
2129;SDS011;1071;52.544;13.374;2023-07-31T13:53:56;5.03;;;4.47;;
2129;SDS011;1071;52.544;13.374;2023-07-31T13:56:23;3.77;;;3.40;;
2129;SDS011;1071;52.544;13.374;2023-07-31T13:58:51;4.90;;;3.53;;
2129;SDS011;1071;52.544;13.374;2023-07-31T14:01:26;4.93;;;4.53;;
2129;SDS011;1071;52.544;13.374;2023-07-31T14:03:59;9.00;;;8.10;;
2129;SDS011;1071;52.544;13.374;2023-07-31T14:06:26;22.63;;;20.33;;
2129;SDS011;1071;52.544;13.374;2023-07-31T14:08:53;7.77;;;6.50;;
2129;SDS011;1071;52.544;13.374;2023-07-31T14:11:23;14.07;;;12.77;;
2129;SDS011;1071;52.544;13.374;2023-07-31T14:13:50;12.10;;;9.83;;
2129;SDS011;1071;52.544;13.374;2023-07-31T14:16:22;14.60;;;12.73;;
2129;SDS011;1071;52.544;13.374;2023-07-31T14:18:49;11.07;;;9.97;;
2129;SDS011;1071;52.544;13.374;2023-07-31T14:21:18;20.17;;;17.47;;
2129;SDS011;1071;52.544;13.374;2023-07-31T14:23:45;25.53;;;22.83;;
2129;SDS011;1071;52.544;13.374;2023-07-31T14:26:42;15.20;;;13.20;;
2129;SDS011;1071;52.544;13.374;2023-07-31T14:29:46;38.10;;;34.10;;
2129;SDS011;1071;52.544;13.374;2023-07-31T14:32:36;10.10;;;8.63;;
2129;SDS011;1071;52.544;13.374;2023-07-31T14:39:24;8.03;;;7.13;;
2129;SDS011;1071;52.544;13.374;2023-07-31T14:41:43;6.93;;;4.47;;
2129;SDS011;1071;52.544;13.374;2023-07-31T14:44:23;4.37;;;3.97;;
2129;SDS011;1071;52.544;13.374;2023-07-31T14:46:50;11.23;;;10.10;;
2129;SDS011;1071;52.544;13.374;2023-07-31T14:49:19;16.70;;;14.83;;
2129;SDS011;1071;52.544;13.374;2023-07-31T14:51:45;37.37;;;33.63;;
2129;SDS011;1071;52.544;13.374;2023-07-31T14:54:12;8.43;;;7.43;;
2129;SDS011;1071;52.544;13.374;2023-07-31T14:56:39;54.70;;;49.07;;
2129;SDS011;1071;52.544;13.374;2023-07-31T14:59:10;22.37;;;20.07;;
2129;SDS011;1071;52.544;13.374;2023-07-31T15:01:37;55.20;;;49.20;;
2129;SDS011;1071;52.544;13.374;2023-07-31T15:04:04;92.83;;;82.73;;
2129;SDS011;1071;52.544;13.374;2023-07-31T15:06:34;17.97;;;16.17;;
2129;SDS011;1071;52.544;13.374;2023-07-31T15:10:44;9.80;;;7.67;;
2129;SDS011;1071;52.544;13.374;2023-07-31T15:14:08;29.90;;;26.80;;
2129;SDS011;1071;52.544;13.374;2023-07-31T15:16:31;59.17;;;51.03;;
2129;SDS011;1071;52.544;13.374;2023-07-31T15:18:58;44.23;;;39.43;;
2129;SDS011;1071;52.544;13.374;2023-07-31T15:27:39;66.37;;;59.13;;
2129;SDS011;1071;52.544;13.374;2023-07-31T15:33:06;95.33;;;83.57;;
2129;SDS011;1071;52.544;13.374;2023-07-31T15:35:36;198.37;;;177.43;;
2129;SDS011;1071;52.544;13.374;2023-07-31T15:40:42;287.67;;;256.33;;
2129;SDS011;1071;52.544;13.374;2023-07-31T15:41:58;115.13;;;102.90;;
2129;SDS011;1071;52.544;13.374;2023-07-31T15:44:40;18.07;;;15.93;;